CheckWX is a tool to help pilots better visualize weather data.  It is not intended as a substitute for an official pre-flight weather briefing.

23:30:54 UTC

KETB METAR
West Bend Municipal Airport
West Bend, Wisconsin, USA
Current

16 mins ago

KETB 242315Z AUTO 04006KT 10SM CLR 01/M01 A2991 RMK AO2
Observed
Feb-24 @ 23:15 UTC
Wind
  • 040° at 6 KTS
Visibility
10 SM
Flight Rules
VFR
Cloud Levels
  • Clear skies
Temperature
C / 34°F
Dewpoint
-1°C / 30°F
Humidity
87%
Altimeter
29.91" Hg
Pressure
1012.92 hPa
Previous

36 mins ago

KETB 242255Z AUTO 03007KT 10SM CLR 02/M01 A2991 RMK AO2
Observed
Feb-24 @ 22:55 UTC
Wind
  • 030° at 7 KTS
Visibility
10 SM
Flight Rules
VFR
Cloud Levels
  • Clear skies
Temperature
C / 36°F
Dewpoint
-1°C / 30°F
Humidity
81%
Altimeter
29.91" Hg
Pressure
1012.92 hPa
Previous

56 mins ago

KETB 242235Z AUTO 04005KT 10SM CLR 02/M02 A2990 RMK AO2
Observed
Feb-24 @ 22:35 UTC
Wind
  • 040° at 5 KTS
Visibility
10 SM
Flight Rules
VFR
Cloud Levels
  • Clear skies
Temperature
C / 36°F
Dewpoint
-2°C / 28°F
Humidity
75%
Altimeter
29.9" Hg
Pressure
1012.52 hPa